sensor_id;sensor_type;location;lat;lon;timestamp;P1;durP1;ratioP1;P2;durP2;ratioP2
66521;SDS011;53349;53.538;8.584;2023-03-31T00:00:40;10.03;;;1.80;;
66521;SDS011;53349;53.538;8.584;2023-03-31T00:03:05;11.97;;;1.97;;
66521;SDS011;53349;53.538;8.584;2023-03-31T00:05:30;11.63;;;1.42;;
66521;SDS011;53349;53.538;8.584;2023-03-31T00:08:00;11.35;;;1.50;;
66521;SDS011;53349;53.538;8.584;2023-03-31T00:10:27;18.00;;;2.53;;
66521;SDS011;53349;53.538;8.584;2023-03-31T00:12:54;15.52;;;1.88;;
66521;SDS011;53349;53.538;8.584;2023-03-31T00:15:19;14.23;;;1.63;;
66521;SDS011;53349;53.538;8.584;2023-03-31T00:17:46;13.45;;;1.85;;
66521;SDS011;53349;53.538;8.584;2023-03-31T00:20:11;11.63;;;1.40;;
66521;SDS011;53349;53.538;8.584;2023-03-31T00:22:37;9.27;;;1.90;;
66521;SDS011;53349;53.538;8.584;2023-03-31T00:25:04;15.27;;;1.83;;
66521;SDS011;53349;53.538;8.584;2023-03-31T00:27:29;13.38;;;1.75;;
66521;SDS011;53349;53.538;8.584;2023-03-31T00:29:55;12.10;;;1.80;;
66521;SDS011;53349;53.538;8.584;2023-03-31T00:32:22;12.77;;;2.05;;
66521;SDS011;53349;53.538;8.584;2023-03-31T00:34:47;9.88;;;1.58;;
66521;SDS011;53349;53.538;8.584;2023-03-31T00:37:14;12.57;;;1.85;;
66521;SDS011;53349;53.538;8.584;2023-03-31T00:39:40;14.53;;;1.80;;
66521;SDS011;53349;53.538;8.584;2023-03-31T00:42:08;12.43;;;1.90;;
66521;SDS011;53349;53.538;8.584;2023-03-31T00:44:35;10.03;;;1.70;;
66521;SDS011;53349;53.538;8.584;2023-03-31T00:47:23;13.85;;;1.80;;
66521;SDS011;53349;53.538;8.584;2023-03-31T00:49:53;9.65;;;1.63;;
66521;SDS011;53349;53.538;8.584;2023-03-31T00:52:23;12.52;;;2.33;;
66521;SDS011;53349;53.538;8.584;2023-03-31T00:55:00;9.55;;;1.48;;
66521;SDS011;53349;53.538;8.584;2023-03-31T00:57:31;12.20;;;2.20;;
66521;SDS011;53349;53.538;8.584;2023-03-31T01:00:03;11.93;;;1.98;;
66521;SDS011;53349;53.538;8.584;2023-03-31T01:02:32;11.93;;;2.20;;
66521;SDS011;53349;53.538;8.584;2023-03-31T01:04:58;13.60;;;2.07;;
66521;SDS011;53349;53.538;8.584;2023-03-31T01:07:30;12.88;;;1.90;;
66521;SDS011;53349;53.538;8.584;2023-03-31T01:10:03;17.58;;;2.15;;
66521;SDS011;53349;53.538;8.584;2023-03-31T01:12:30;13.73;;;2.20;;
66521;SDS011;53349;53.538;8.584;2023-03-31T01:14:58;13.10;;;1.80;;
66521;SDS011;53349;53.538;8.584;2023-03-31T01:17:25;15.32;;;2.00;;
66521;SDS011;53349;53.538;8.584;2023-03-31T01:31:17;14.13;;;2.13;;
66521;SDS011;53349;53.538;8.584;2023-03-31T01:39:46;13.88;;;2.00;;
66521;SDS011;53349;53.538;8.584;2023-03-31T01:51:20;9.38;;;1.58;;
66521;SDS011;53349;53.538;8.584;2023-03-31T01:54:29;11.85;;;1.90;;
66521;SDS011;53349;53.538;8.584;2023-03-31T01:57:08;11.52;;;2.35;;
66521;SDS011;53349;53.538;8.584;2023-03-31T01:59:51;9.45;;;1.80;;
66521;SDS011;53349;53.538;8.584;2023-03-31T02:02:25;16.65;;;2.42;;
66521;SDS011;53349;53.538;8.584;2023-03-31T02:04:59;16.88;;;2.35;;
66521;SDS011;53349;53.538;8.584;2023-03-31T02:07:32;11.70;;;2.28;;
66521;SDS011;53349;53.538;8.584;2023-03-31T02:10:03;9.35;;;1.60;;
66521;SDS011;53349;53.538;8.584;2023-03-31T02:12:32;17.95;;;2.60;;
66521;SDS011;53349;53.538;8.584;2023-03-31T02:14:59;13.63;;;2.10;;
66521;SDS011;53349;53.538;8.584;2023-03-31T02:17:29;16.92;;;2.15;;
66521;SDS011;53349;53.538;8.584;2023-03-31T02:19:56;15.60;;;2.50;;
66521;SDS011;53349;53.538;8.584;2023-03-31T02:22:25;13.52;;;2.40;;
66521;SDS011;53349;53.538;8.584;2023-03-31T02:24:53;11.10;;;2.00;;
66521;SDS011;53349;53.538;8.584;2023-03-31T02:27:41;11.60;;;1.90;;
66521;SDS011;53349;53.538;8.584;2023-03-31T02:30:07;14.10;;;2.47;;
66521;SDS011;53349;53.538;8.584;2023-03-31T02:32:40;11.93;;;2.10;;
66521;SDS011;53349;53.538;8.584;2023-03-31T02:35:23;13.32;;;2.25;;
66521;SDS011;53349;53.538;8.584;2023-03-31T02:37:49;17.02;;;2.78;;
66521;SDS011;53349;53.538;8.584;2023-03-31T02:40:16;17.48;;;2.10;;
66521;SDS011;53349;53.538;8.584;2023-03-31T02:42:44;10.27;;;2.15;;
66521;SDS011;53349;53.538;8.584;2023-03-31T02:48:17;12.23;;;2.13;;
66521;SDS011;53349;53.538;8.584;2023-03-31T02:56:18;12.05;;;2.30;;
66521;SDS011;53349;53.538;8.584;2023-03-31T03:05:15;13.35;;;2.30;;
66521;SDS011;53349;53.538;8.584;2023-03-31T03:16:08;15.20;;;4.55;;
66521;SDS011;53349;53.538;8.584;2023-03-31T03:18:42;16.65;;;3.30;;
66521;SDS011;53349;53.538;8.584;2023-03-31T03:21:20;15.23;;;2.38;;
66521;SDS011;53349;53.538;8.584;2023-03-31T03:23:45;15.40;;;2.20;;
66521;SDS011;53349;53.538;8.584;2023-03-31T03:26:10;13.57;;;2.50;;
66521;SDS011;53349;53.538;8.584;2023-03-31T03:28:35;13.20;;;2.33;;
66521;SDS011;53349;53.538;8.584;2023-03-31T03:31:02;10.35;;;1.95;;
66521;SDS011;53349;53.538;8.584;2023-03-31T03:33:30;10.75;;;1.95;;
66521;SDS011;53349;53.538;8.584;2023-03-31T03:35:55;10.53;;;1.97;;
66521;SDS011;53349;53.538;8.584;2023-03-31T03:38:21;17.10;;;2.27;;
66521;SDS011;53349;53.538;8.584;2023-03-31T03:40:46;15.83;;;2.20;;
66521;SDS011;53349;53.538;8.584;2023-03-31T03:43:11;9.63;;;2.10;;
66521;SDS011;53349;53.538;8.584;2023-03-31T03:45:39;28.80;;;11.93;;
66521;SDS011;53349;53.538;8.584;2023-03-31T03:48:06;57.63;;;26.65;;
66521;SDS011;53349;53.538;8.584;2023-03-31T03:50:34;65.83;;;29.40;;
66521;SDS011;53349;53.538;8.584;2023-03-31T03:53:01;109.18;;;49.50;;
66521;SDS011;53349;53.538;8.584;2023-03-31T03:55:26;143.20;;;67.80;;
66521;SDS011;53349;53.538;8.584;2023-03-31T03:57:52;127.63;;;60.07;;
66521;SDS011;53349;53.538;8.584;2023-03-31T04:00:19;110.13;;;50.47;;
66521;SDS011;53349;53.538;8.584;2023-03-31T04:02:45;96.45;;;40.65;;
66521;SDS011;53349;53.538;8.584;2023-03-31T04:05:10;119.63;;;51.05;;
66521;SDS011;53349;53.538;8.584;2023-03-31T04:07:36;122.00;;;50.58;;
66521;SDS011;53349;53.538;8.584;2023-03-31T04:10:01;103.40;;;39.30;;
66521;SDS011;53349;53.538;8.584;2023-03-31T04:12:29;78.30;;;29.50;;
66521;SDS011;53349;53.538;8.584;2023-03-31T04:15:03;48.75;;;19.95;;
66521;SDS011;53349;53.538;8.584;2023-03-31T04:17:29;41.13;;;16.73;;
66521;SDS011;53349;53.538;8.584;2023-03-31T04:19:55;33.20;;;12.88;;
66521;SDS011;53349;53.538;8.584;2023-03-31T04:22:20;25.63;;;9.00;;
66521;SDS011;53349;53.538;8.584;2023-03-31T04:24:45;21.03;;;7.00;;
66521;SDS011;53349;53.538;8.584;2023-03-31T04:27:14;20.87;;;5.37;;
66521;SDS011;53349;53.538;8.584;2023-03-31T04:29:41;15.13;;;5.20;;
66521;SDS011;53349;53.538;8.584;2023-03-31T04:32:07;17.38;;;4.10;;
66521;SDS011;53349;53.538;8.584;2023-03-31T04:34:33;22.42;;;6.30;;
66521;SDS011;53349;53.538;8.584;2023-03-31T04:37:00;21.00;;;6.27;;
66521;SDS011;53349;53.538;8.584;2023-03-31T04:39:27;33.75;;;9.00;;
66521;SDS011;53349;53.538;8.584;2023-03-31T04:41:53;24.27;;;7.72;;
66521;SDS011;53349;53.538;8.584;2023-03-31T04:44:23;19.65;;;5.45;;
66521;SDS011;53349;53.538;8.584;2023-03-31T04:46:49;18.67;;;5.73;;
66521;SDS011;53349;53.538;8.584;2023-03-31T04:49:14;14.33;;;4.20;;
66521;SDS011;53349;53.538;8.584;2023-03-31T04:51:39;18.97;;;4.17;;
66521;SDS011;53349;53.538;8.584;2023-03-31T04:54:05;10.10;;;3.60;;
66521;SDS011;53349;53.538;8.584;2023-03-31T04:56:30;17.33;;;3.70;;
66521;SDS011;53349;53.538;8.584;2023-03-31T04:58:56;16.20;;;3.73;;
66521;SDS011;53349;53.538;8.584;2023-03-31T05:01:21;12.13;;;3.43;;
66521;SDS011;53349;53.538;8.584;2023-03-31T05:03:46;10.00;;;3.17;;
66521;SDS011;53349;53.538;8.584;2023-03-31T05:06:12;10.30;;;3.20;;
66521;SDS011;53349;53.538;8.584;2023-03-31T05:08:38;11.13;;;3.20;;
66521;SDS011;53349;53.538;8.584;2023-03-31T05:11:04;9.53;;;3.00;;
66521;SDS011;53349;53.538;8.584;2023-03-31T05:13:29;10.87;;;3.50;;
66521;SDS011;53349;53.538;8.584;2023-03-31T05:15:54;10.87;;;2.90;;
66521;SDS011;53349;53.538;8.584;2023-03-31T05:18:20;11.13;;;2.53;;
66521;SDS011;53349;53.538;8.584;2023-03-31T05:20:45;11.90;;;2.90;;
66521;SDS011;53349;53.538;8.584;2023-03-31T05:23:10;12.05;;;2.88;;
66521;SDS011;53349;53.538;8.584;2023-03-31T05:25:37;9.10;;;2.17;;
66521;SDS011;53349;53.538;8.584;2023-03-31T05:28:04;13.45;;;2.85;;
66521;SDS011;53349;53.538;8.584;2023-03-31T05:30:29;11.80;;;2.65;;
66521;SDS011;53349;53.538;8.584;2023-03-31T05:32:54;9.38;;;2.33;;
66521;SDS011;53349;53.538;8.584;2023-03-31T05:35:21;9.50;;;2.55;;
66521;SDS011;53349;53.538;8.584;2023-03-31T05:37:47;7.85;;;2.35;;
66521;SDS011;53349;53.538;8.584;2023-03-31T05:40:12;9.73;;;2.20;;
66521;SDS011;53349;53.538;8.584;2023-03-31T05:42:38;10.43;;;2.38;;
66521;SDS011;53349;53.538;8.584;2023-03-31T05:45:04;9.60;;;2.33;;
66521;SDS011;53349;53.538;8.584;2023-03-31T05:47:30;10.43;;;2.28;;
66521;SDS011;53349;53.538;8.584;2023-03-31T05:49:57;13.10;;;4.20;;
66521;SDS011;53349;53.538;8.584;2023-03-31T05:52:22;9.17;;;2.60;;
66521;SDS011;53349;53.538;8.584;2023-03-31T05:54:48;9.30;;;2.47;;
66521;SDS011;53349;53.538;8.584;2023-03-31T05:57:13;8.23;;;2.37;;
66521;SDS011;53349;53.538;8.584;2023-03-31T05:59:38;12.77;;;2.53;;
66521;SDS011;53349;53.538;8.584;2023-03-31T06:02:04;10.38;;;2.22;;
66521;SDS011;53349;53.538;8.584;2023-03-31T06:04:29;10.27;;;1.93;;
66521;SDS011;53349;53.538;8.584;2023-03-31T06:06:55;11.47;;;2.17;;
66521;SDS011;53349;53.538;8.584;2023-03-31T06:09:20;10.13;;;2.00;;
66521;SDS011;53349;53.538;8.584;2023-03-31T06:11:45;9.40;;;2.57;;
66521;SDS011;53349;53.538;8.584;2023-03-31T06:14:11;12.10;;;2.47;;
66521;SDS011;53349;53.538;8.584;2023-03-31T06:16:39;12.95;;;3.20;;
66521;SDS011;53349;53.538;8.584;2023-03-31T06:19:04;8.83;;;2.50;;
66521;SDS011;53349;53.538;8.584;2023-03-31T06:21:30;8.98;;;2.70;;
66521;SDS011;53349;53.538;8.584;2023-03-31T06:23:58;9.20;;;2.20;;
66521;SDS011;53349;53.538;8.584;2023-03-31T06:26:24;11.32;;;2.75;;
66521;SDS011;53349;53.538;8.584;2023-03-31T06:28:49;11.00;;;2.30;;
66521;SDS011;53349;53.538;8.584;2023-03-31T06:31:17;8.57;;;2.45;;
66521;SDS011;53349;53.538;8.584;2023-03-31T06:33:45;9.80;;;2.00;;
66521;SDS011;53349;53.538;8.584;2023-03-31T06:36:12;7.60;;;2.30;;
66521;SDS011;53349;53.538;8.584;2023-03-31T06:38:38;8.52;;;2.00;;
66521;SDS011;53349;53.538;8.584;2023-03-31T06:41:04;8.80;;;2.28;;
66521;SDS011;53349;53.538;8.584;2023-03-31T06:43:32;6.97;;;2.08;;
66521;SDS011;53349;53.538;8.584;2023-03-31T06:45:58;7.90;;;2.35;;
66521;SDS011;53349;53.538;8.584;2023-03-31T06:48:24;10.52;;;2.55;;
66521;SDS011;53349;53.538;8.584;2023-03-31T06:50:52;10.80;;;2.45;;
66521;SDS011;53349;53.538;8.584;2023-03-31T06:53:18;8.23;;;2.20;;
66521;SDS011;53349;53.538;8.584;2023-03-31T06:55:45;10.23;;;2.72;;
66521;SDS011;53349;53.538;8.584;2023-03-31T06:58:11;7.97;;;2.60;;
66521;SDS011;53349;53.538;8.584;2023-03-31T07:00:37;9.83;;;2.97;;
66521;SDS011;53349;53.538;8.584;2023-03-31T07:03:03;11.45;;;3.38;;
66521;SDS011;53349;53.538;8.584;2023-03-31T07:05:29;14.30;;;4.35;;
66521;SDS011;53349;53.538;8.584;2023-03-31T07:07:55;12.38;;;4.05;;
66521;SDS011;53349;53.538;8.584;2023-03-31T07:10:23;9.93;;;4.10;;
66521;SDS011;53349;53.538;8.584;2023-03-31T07:12:50;10.98;;;4.55;;
66521;SDS011;53349;53.538;8.584;2023-03-31T07:15:16;13.70;;;4.25;;
66521;SDS011;53349;53.538;8.584;2023-03-31T07:17:42;13.90;;;5.23;;
66521;SDS011;53349;53.538;8.584;2023-03-31T07:20:13;17.33;;;5.47;;
66521;SDS011;53349;53.538;8.584;2023-03-31T07:22:42;14.82;;;5.68;;
66521;SDS011;53349;53.538;8.584;2023-03-31T07:25:09;13.70;;;5.90;;
66521;SDS011;53349;53.538;8.584;2023-03-31T07:27:36;18.50;;;5.77;;
66521;SDS011;53349;53.538;8.584;2023-03-31T07:30:03;15.68;;;6.60;;
66521;SDS011;53349;53.538;8.584;2023-03-31T07:32:30;16.52;;;7.13;;
66521;SDS011;53349;53.538;8.584;2023-03-31T07:34:55;16.38;;;7.28;;
66521;SDS011;53349;53.538;8.584;2023-03-31T07:37:22;18.67;;;7.77;;
66521;SDS011;53349;53.538;8.584;2023-03-31T07:39:47;16.43;;;7.27;;
66521;SDS011;53349;53.538;8.584;2023-03-31T07:42:13;21.40;;;8.23;;
66521;SDS011;53349;53.538;8.584;2023-03-31T07:44:39;20.60;;;8.63;;
66521;SDS011;53349;53.538;8.584;2023-03-31T07:47:04;18.20;;;8.33;;
66521;SDS011;53349;53.538;8.584;2023-03-31T07:49:32;18.98;;;8.30;;
66521;SDS011;53349;53.538;8.584;2023-03-31T07:51:58;22.97;;;8.53;;
66521;SDS011;53349;53.538;8.584;2023-03-31T07:54:24;17.70;;;8.38;;
66521;SDS011;53349;53.538;8.584;2023-03-31T07:56:50;21.77;;;9.05;;
66521;SDS011;53349;53.538;8.584;2023-03-31T07:59:15;26.23;;;10.33;;
66521;SDS011;53349;53.538;8.584;2023-03-31T08:01:42;17.93;;;9.30;;
66521;SDS011;53349;53.538;8.584;2023-03-31T08:04:08;20.95;;;9.65;;
66521;SDS011;53349;53.538;8.584;2023-03-31T08:06:34;18.83;;;10.10;;
66521;SDS011;53349;53.538;8.584;2023-03-31T08:08:59;24.07;;;10.50;;
66521;SDS011;53349;53.538;8.584;2023-03-31T08:11:25;21.73;;;11.87;;
66521;SDS011;53349;53.538;8.584;2023-03-31T08:13:50;20.73;;;10.33;;
66521;SDS011;53349;53.538;8.584;2023-03-31T08:16:18;19.65;;;9.52;;
66521;SDS011;53349;53.538;8.584;2023-03-31T08:18:43;18.40;;;10.33;;
66521;SDS011;53349;53.538;8.584;2023-03-31T08:21:09;24.80;;;10.55;;
66521;SDS011;53349;53.538;8.584;2023-03-31T08:23:35;18.23;;;10.43;;
66521;SDS011;53349;53.538;8.584;2023-03-31T08:26:11;23.42;;;10.23;;
66521;SDS011;53349;53.538;8.584;2023-03-31T08:28:37;17.75;;;10.25;;
66521;SDS011;53349;53.538;8.584;2023-03-31T08:31:05;17.13;;;9.43;;
66521;SDS011;53349;53.538;8.584;2023-03-31T08:33:33;19.35;;;8.85;;
66521;SDS011;53349;53.538;8.584;2023-03-31T08:36:04;16.98;;;8.88;;
66521;SDS011;53349;53.538;8.584;2023-03-31T08:38:32;18.75;;;9.20;;
66521;SDS011;53349;53.538;8.584;2023-03-31T08:41:00;15.25;;;8.40;;
66521;SDS011;53349;53.538;8.584;2023-03-31T08:43:29;19.33;;;9.13;;
66521;SDS011;53349;53.538;8.584;2023-03-31T08:45:58;18.48;;;9.40;;
66521;SDS011;53349;53.538;8.584;2023-03-31T08:48:35;19.90;;;8.90;;
66521;SDS011;53349;53.538;8.584;2023-03-31T08:51:08;19.88;;;9.80;;
66521;SDS011;53349;53.538;8.584;2023-03-31T08:53:42;20.83;;;10.05;;
66521;SDS011;53349;53.538;8.584;2023-03-31T08:56:21;19.40;;;10.50;;
66521;SDS011;53349;53.538;8.584;2023-03-31T08:58:49;19.98;;;10.75;;
66521;SDS011;53349;53.538;8.584;2023-03-31T09:07:04;19.50;;;9.43;;
66521;SDS011;53349;53.538;8.584;2023-03-31T09:09:46;18.35;;;9.55;;
66521;SDS011;53349;53.538;8.584;2023-03-31T09:12:26;18.77;;;8.13;;
66521;SDS011;53349;53.538;8.584;2023-03-31T09:15:05;17.17;;;9.10;;
66521;SDS011;53349;53.538;8.584;2023-03-31T09:17:40;18.05;;;8.27;;
66521;SDS011;53349;53.538;8.584;2023-03-31T09:20:19;13.15;;;6.85;;
66521;SDS011;53349;53.538;8.584;2023-03-31T09:22:53;14.68;;;6.80;;
66521;SDS011;53349;53.538;8.584;2023-03-31T09:25:25;12.60;;;6.00;;
66521;SDS011;53349;53.538;8.584;2023-03-31T09:27:55;12.95;;;6.13;;
66521;SDS011;53349;53.538;8.584;2023-03-31T09:30:27;12.20;;;5.88;;
66521;SDS011;53349;53.538;8.584;2023-03-31T09:33:01;9.70;;;5.60;;
66521;SDS011;53349;53.538;8.584;2023-03-31T09:35:46;13.10;;;5.55;;
66521;SDS011;53349;53.538;8.584;2023-03-31T09:38:13;11.87;;;5.90;;
66521;SDS011;53349;53.538;8.584;2023-03-31T09:40:40;11.05;;;5.93;;
66521;SDS011;53349;53.538;8.584;2023-03-31T09:43:14;13.75;;;6.45;;
66521;SDS011;53349;53.538;8.584;2023-03-31T09:45:45;11.10;;;6.25;;
66521;SDS011;53349;53.538;8.584;2023-03-31T09:48:15;16.57;;;6.27;;
66521;SDS011;53349;53.538;8.584;2023-03-31T09:50:49;12.82;;;6.10;;
66521;SDS011;53349;53.538;8.584;2023-03-31T09:53:21;18.00;;;8.90;;
66521;SDS011;53349;53.538;8.584;2023-03-31T09:55:59;12.15;;;5.95;;
66521;SDS011;53349;53.538;8.584;2023-03-31T09:58:30;11.20;;;5.45;;
66521;SDS011;53349;53.538;8.584;2023-03-31T10:01:05;10.53;;;5.70;;
66521;SDS011;53349;53.538;8.584;2023-03-31T10:03:40;10.30;;;5.90;;
66521;SDS011;53349;53.538;8.584;2023-03-31T10:06:16;11.68;;;5.53;;
66521;SDS011;53349;53.538;8.584;2023-03-31T10:08:47;13.60;;;7.95;;
66521;SDS011;53349;53.538;8.584;2023-03-31T10:11:14;9.77;;;5.97;;
66521;SDS011;53349;53.538;8.584;2023-03-31T10:16:13;10.68;;;5.20;;
66521;SDS011;53349;53.538;8.584;2023-03-31T10:19:13;9.20;;;4.97;;
66521;SDS011;53349;53.538;8.584;2023-03-31T10:21:44;10.40;;;5.28;;
66521;SDS011;53349;53.538;8.584;2023-03-31T10:24:09;10.73;;;5.43;;
66521;SDS011;53349;53.538;8.584;2023-03-31T10:26:35;10.10;;;5.20;;
66521;SDS011;53349;53.538;8.584;2023-03-31T10:29:03;12.15;;;5.63;;
66521;SDS011;53349;53.538;8.584;2023-03-31T10:31:36;11.02;;;5.03;;
66521;SDS011;53349;53.538;8.584;2023-03-31T10:34:08;9.07;;;5.05;;
66521;SDS011;53349;53.538;8.584;2023-03-31T10:36:38;10.07;;;4.93;;
66521;SDS011;53349;53.538;8.584;2023-03-31T10:39:11;9.85;;;4.85;;
66521;SDS011;53349;53.538;8.584;2023-03-31T10:41:40;10.02;;;4.88;;
66521;SDS011;53349;53.538;8.584;2023-03-31T10:44:10;9.43;;;4.97;;
66521;SDS011;53349;53.538;8.584;2023-03-31T10:49:57;11.85;;;5.65;;
66521;SDS011;53349;53.538;8.584;2023-03-31T10:52:23;13.23;;;6.20;;
66521;SDS011;53349;53.538;8.584;2023-03-31T10:54:57;13.85;;;6.03;;
66521;SDS011;53349;53.538;8.584;2023-03-31T10:57:35;11.68;;;6.18;;
66521;SDS011;53349;53.538;8.584;2023-03-31T11:00:38;13.57;;;6.85;;
66521;SDS011;53349;53.538;8.584;2023-03-31T11:06:25;13.05;;;7.15;;
66521;SDS011;53349;53.538;8.584;2023-03-31T11:09:20;15.35;;;7.03;;
66521;SDS011;53349;53.538;8.584;2023-03-31T11:17:48;13.23;;;6.78;;
66521;SDS011;53349;53.538;8.584;2023-03-31T11:23:49;13.55;;;6.43;;
66521;SDS011;53349;53.538;8.584;2023-03-31T11:26:42;11.68;;;6.07;;
66521;SDS011;53349;53.538;8.584;2023-03-31T11:37:26;10.98;;;5.22;;
66521;SDS011;53349;53.538;8.584;2023-03-31T11:43:01;11.52;;;5.90;;
66521;SDS011;53349;53.538;8.584;2023-03-31T11:45:42;14.43;;;5.93;;
66521;SDS011;53349;53.538;8.584;2023-03-31T11:48:16;12.55;;;5.30;;
66521;SDS011;53349;53.538;8.584;2023-03-31T11:51:04;11.60;;;5.35;;
66521;SDS011;53349;53.538;8.584;2023-03-31T11:53:35;10.60;;;5.53;;
66521;SDS011;53349;53.538;8.584;2023-03-31T11:56:04;12.02;;;5.60;;
66521;SDS011;53349;53.538;8.584;2023-03-31T11:58:34;12.82;;;5.90;;
66521;SDS011;53349;53.538;8.584;2023-03-31T12:01:20;12.35;;;5.85;;
66521;SDS011;53349;53.538;8.584;2023-03-31T12:06:39;11.55;;;5.95;;
66521;SDS011;53349;53.538;8.584;2023-03-31T12:09:10;12.57;;;5.97;;
66521;SDS011;53349;53.538;8.584;2023-03-31T12:17:04;10.15;;;5.55;;
66521;SDS011;53349;53.538;8.584;2023-03-31T12:19:46;11.88;;;6.30;;
66521;SDS011;53349;53.538;8.584;2023-03-31T12:22:21;11.30;;;5.15;;
66521;SDS011;53349;53.538;8.584;2023-03-31T12:24:50;8.48;;;5.30;;
66521;SDS011;53349;53.538;8.584;2023-03-31T12:27:17;9.15;;;5.07;;
66521;SDS011;53349;53.538;8.584;2023-03-31T12:29:50;8.30;;;4.60;;
66521;SDS011;53349;53.538;8.584;2023-03-31T12:32:28;7.35;;;4.00;;
66521;SDS011;53349;53.538;8.584;2023-03-31T12:35:06;7.65;;;4.18;;
66521;SDS011;53349;53.538;8.584;2023-03-31T12:54:26;5.00;;;2.78;;
66521;SDS011;53349;53.538;8.584;2023-03-31T12:59:39;6.88;;;3.25;;
66521;SDS011;53349;53.538;8.584;2023-03-31T13:04:37;6.68;;;3.70;;
66521;SDS011;53349;53.538;8.584;2023-03-31T13:07:11;7.18;;;3.55;;
66521;SDS011;53349;53.538;8.584;2023-03-31T13:10:22;7.93;;;3.58;;
66521;SDS011;53349;53.538;8.584;2023-03-31T13:12:55;7.28;;;3.55;;
66521;SDS011;53349;53.538;8.584;2023-03-31T13:15:27;10.38;;;4.18;;
66521;SDS011;53349;53.538;8.584;2023-03-31T13:18:03;7.70;;;3.50;;
66521;SDS011;53349;53.538;8.584;2023-03-31T13:20:37;6.68;;;3.33;;
66521;SDS011;53349;53.538;8.584;2023-03-31T13:23:05;6.53;;;3.08;;
66521;SDS011;53349;53.538;8.584;2023-03-31T13:30:52;4.95;;;2.60;;
66521;SDS011;53349;53.538;8.584;2023-03-31T13:33:31;8.52;;;3.17;;
66521;SDS011;53349;53.538;8.584;2023-03-31T13:36:18;6.60;;;3.10;;
66521;SDS011;53349;53.538;8.584;2023-03-31T13:41:50;5.10;;;2.83;;
66521;SDS011;53349;53.538;8.584;2023-03-31T13:44:27;6.68;;;2.70;;
66521;SDS011;53349;53.538;8.584;2023-03-31T13:49:55;5.70;;;2.85;;
66521;SDS011;53349;53.538;8.584;2023-03-31T14:01:30;6.10;;;2.63;;
66521;SDS011;53349;53.538;8.584;2023-03-31T14:07:00;6.13;;;3.00;;
66521;SDS011;53349;53.538;8.584;2023-03-31T14:09:34;5.30;;;2.75;;
66521;SDS011;53349;53.538;8.584;2023-03-31T14:12:17;7.57;;;2.88;;
66521;SDS011;53349;53.538;8.584;2023-03-31T14:14:55;7.88;;;2.85;;
66521;SDS011;53349;53.538;8.584;2023-03-31T14:17:27;8.00;;;2.80;;
66521;SDS011;53349;53.538;8.584;2023-03-31T14:31:16;5.75;;;2.40;;
66521;SDS011;53349;53.538;8.584;2023-03-31T14:36:35;5.80;;;2.40;;
66521;SDS011;53349;53.538;8.584;2023-03-31T14:39:08;4.82;;;2.45;;
66521;SDS011;53349;53.538;8.584;2023-03-31T14:41:35;4.60;;;2.00;;
66521;SDS011;53349;53.538;8.584;2023-03-31T14:44:01;4.40;;;2.03;;
66521;SDS011;53349;53.538;8.584;2023-03-31T14:46:30;5.20;;;1.73;;
66521;SDS011;53349;53.538;8.584;2023-03-31T14:48:56;4.53;;;2.00;;
66521;SDS011;53349;53.538;8.584;2023-03-31T14:51:29;3.70;;;1.60;;
66521;SDS011;53349;53.538;8.584;2023-03-31T14:53:59;4.72;;;1.90;;
66521;SDS011;53349;53.538;8.584;2023-03-31T14:56:32;5.03;;;1.83;;
66521;SDS011;53349;53.538;8.584;2023-03-31T14:59:02;3.90;;;1.63;;
66521;SDS011;53349;53.538;8.584;2023-03-31T15:01:31;3.58;;;1.85;;
66521;SDS011;53349;53.538;8.584;2023-03-31T15:03:58;3.95;;;1.73;;
66521;SDS011;53349;53.538;8.584;2023-03-31T15:06:24;5.13;;;2.00;;
66521;SDS011;53349;53.538;8.584;2023-03-31T15:08:50;3.72;;;2.10;;
66521;SDS011;53349;53.538;8.584;2023-03-31T15:11:20;4.05;;;1.77;;
66521;SDS011;53349;53.538;8.584;2023-03-31T15:13:46;4.53;;;2.00;;
66521;SDS011;53349;53.538;8.584;2023-03-31T15:21:39;4.60;;;1.70;;
66521;SDS011;53349;53.538;8.584;2023-03-31T15:24:04;5.47;;;1.92;;
66521;SDS011;53349;53.538;8.584;2023-03-31T15:26:31;5.30;;;1.93;;
66521;SDS011;53349;53.538;8.584;2023-03-31T15:29:04;4.88;;;1.83;;
66521;SDS011;53349;53.538;8.584;2023-03-31T15:31:36;4.57;;;1.88;;
66521;SDS011;53349;53.538;8.584;2023-03-31T15:34:12;5.00;;;1.50;;
66521;SDS011;53349;53.538;8.584;2023-03-31T15:36:39;5.35;;;1.90;;
66521;SDS011;53349;53.538;8.584;2023-03-31T15:39:04;4.50;;;1.90;;
66521;SDS011;53349;53.538;8.584;2023-03-31T15:41:30;5.90;;;2.00;;
66521;SDS011;53349;53.538;8.584;2023-03-31T15:44:03;4.47;;;1.70;;
66521;SDS011;53349;53.538;8.584;2023-03-31T15:49:02;3.63;;;1.80;;
66521;SDS011;53349;53.538;8.584;2023-03-31T15:51:31;5.20;;;2.10;;
66521;SDS011;53349;53.538;8.584;2023-03-31T15:53:59;5.15;;;2.50;;
66521;SDS011;53349;53.538;8.584;2023-03-31T15:56:43;7.67;;;2.53;;
66521;SDS011;53349;53.538;8.584;2023-03-31T16:01:47;6.18;;;2.10;;
66521;SDS011;53349;53.538;8.584;2023-03-31T16:04:16;6.35;;;2.40;;
66521;SDS011;53349;53.538;8.584;2023-03-31T16:09:15;7.18;;;3.58;;
66521;SDS011;53349;53.538;8.584;2023-03-31T16:11:47;7.50;;;3.08;;
66521;SDS011;53349;53.538;8.584;2023-03-31T16:14:33;8.43;;;3.83;;
66521;SDS011;53349;53.538;8.584;2023-03-31T16:17:05;8.57;;;3.78;;
66521;SDS011;53349;53.538;8.584;2023-03-31T16:19:40;8.65;;;4.00;;
66521;SDS011;53349;53.538;8.584;2023-03-31T16:22:18;9.77;;;3.83;;
66521;SDS011;53349;53.538;8.584;2023-03-31T16:24:49;9.82;;;4.10;;
66521;SDS011;53349;53.538;8.584;2023-03-31T16:27:17;10.25;;;4.75;;
66521;SDS011;53349;53.538;8.584;2023-03-31T16:29:43;7.73;;;3.73;;
66521;SDS011;53349;53.538;8.584;2023-03-31T16:32:11;8.18;;;3.42;;
66521;SDS011;53349;53.538;8.584;2023-03-31T16:34:56;9.23;;;3.60;;
66521;SDS011;53349;53.538;8.584;2023-03-31T16:37:25;9.27;;;3.60;;
66521;SDS011;53349;53.538;8.584;2023-03-31T16:39:51;11.40;;;4.60;;
66521;SDS011;53349;53.538;8.584;2023-03-31T16:42:17;9.38;;;4.75;;
66521;SDS011;53349;53.538;8.584;2023-03-31T16:44:45;9.45;;;4.32;;
66521;SDS011;53349;53.538;8.584;2023-03-31T16:47:13;6.00;;;3.60;;
66521;SDS011;53349;53.538;8.584;2023-03-31T16:49:39;9.05;;;2.95;;
66521;SDS011;53349;53.538;8.584;2023-03-31T16:52:05;9.45;;;3.83;;
66521;SDS011;53349;53.538;8.584;2023-03-31T16:54:31;7.60;;;2.30;;
66521;SDS011;53349;53.538;8.584;2023-03-31T16:56:56;7.07;;;2.20;;
66521;SDS011;53349;53.538;8.584;2023-03-31T16:59:22;5.27;;;2.63;;
66521;SDS011;53349;53.538;8.584;2023-03-31T17:01:48;9.05;;;2.90;;
66521;SDS011;53349;53.538;8.584;2023-03-31T17:04:13;7.43;;;2.80;;
66521;SDS011;53349;53.538;8.584;2023-03-31T17:06:39;8.80;;;2.63;;
66521;SDS011;53349;53.538;8.584;2023-03-31T17:09:04;6.30;;;2.67;;
66521;SDS011;53349;53.538;8.584;2023-03-31T17:11:29;5.25;;;2.00;;
66521;SDS011;53349;53.538;8.584;2023-03-31T17:13:55;8.10;;;2.50;;
66521;SDS011;53349;53.538;8.584;2023-03-31T17:16:20;5.90;;;2.15;;
66521;SDS011;53349;53.538;8.584;2023-03-31T17:18:45;6.13;;;2.70;;
66521;SDS011;53349;53.538;8.584;2023-03-31T17:21:11;6.87;;;3.37;;
66521;SDS011;53349;53.538;8.584;2023-03-31T17:23:38;7.30;;;3.40;;
66521;SDS011;53349;53.538;8.584;2023-03-31T17:26:05;7.85;;;3.92;;
66521;SDS011;53349;53.538;8.584;2023-03-31T17:28:32;7.73;;;3.40;;
66521;SDS011;53349;53.538;8.584;2023-03-31T17:30:59;9.15;;;3.45;;
66521;SDS011;53349;53.538;8.584;2023-03-31T17:33:24;9.13;;;3.93;;
66521;SDS011;53349;53.538;8.584;2023-03-31T17:35:55;10.77;;;4.57;;
66521;SDS011;53349;53.538;8.584;2023-03-31T17:38:26;9.93;;;4.78;;